sensor_id;sensor_type;location;lat;lon;timestamp;P1;durP1;ratioP1;P2;durP2;ratioP2
76193;SDS011;64963;52.212;7.482;2022-11-14T00:01:51;145.67;;;30.73;;
76193;SDS011;64963;52.212;7.482;2022-11-14T00:04:16;140.57;;;29.87;;
76193;SDS011;64963;52.212;7.482;2022-11-14T00:06:42;134.37;;;30.47;;
76193;SDS011;64963;52.212;7.482;2022-11-14T00:09:07;135.20;;;29.50;;
76193;SDS011;64963;52.212;7.482;2022-11-14T00:11:32;133.97;;;30.73;;
76193;SDS011;64963;52.212;7.482;2022-11-14T00:13:57;146.50;;;31.43;;
76193;SDS011;64963;52.212;7.482;2022-11-14T00:16:22;137.77;;;29.87;;
76193;SDS011;64963;52.212;7.482;2022-11-14T00:18:47;136.65;;;29.02;;
76193;SDS011;64963;52.212;7.482;2022-11-14T00:21:13;143.20;;;30.47;;
76193;SDS011;64963;52.212;7.482;2022-11-14T00:23:38;128.40;;;30.58;;
76193;SDS011;64963;52.212;7.482;2022-11-14T00:26:03;138.47;;;31.40;;
76193;SDS011;64963;52.212;7.482;2022-11-14T00:28:28;121.97;;;26.83;;
76193;SDS011;64963;52.212;7.482;2022-11-14T00:30:53;112.87;;;28.53;;
76193;SDS011;64963;52.212;7.482;2022-11-14T00:33:18;136.45;;;30.25;;
76193;SDS011;64963;52.212;7.482;2022-11-14T00:35:50;122.23;;;30.00;;
76193;SDS011;64963;52.212;7.482;2022-11-14T00:38:16;130.85;;;28.30;;
76193;SDS011;64963;52.212;7.482;2022-11-14T00:40:41;125.93;;;29.13;;
76193;SDS011;64963;52.212;7.482;2022-11-14T00:43:06;126.57;;;29.55;;
76193;SDS011;64963;52.212;7.482;2022-11-14T00:45:31;133.50;;;29.83;;
76193;SDS011;64963;52.212;7.482;2022-11-14T00:47:56;123.27;;;29.60;;
76193;SDS011;64963;52.212;7.482;2022-11-14T00:50:22;125.60;;;30.03;;
76193;SDS011;64963;52.212;7.482;2022-11-14T00:52:47;122.40;;;29.00;;
76193;SDS011;64963;52.212;7.482;2022-11-14T00:55:12;148.37;;;31.57;;
76193;SDS011;64963;52.212;7.482;2022-11-14T00:57:37;144.03;;;32.30;;
76193;SDS011;64963;52.212;7.482;2022-11-14T01:00:03;137.07;;;32.77;;
76193;SDS011;64963;52.212;7.482;2022-11-14T01:02:28;138.70;;;29.40;;
76193;SDS011;64963;52.212;7.482;2022-11-14T01:04:53;143.77;;;29.63;;
76193;SDS011;64963;52.212;7.482;2022-11-14T01:07:19;132.40;;;29.57;;
76193;SDS011;64963;52.212;7.482;2022-11-14T01:09:44;148.88;;;30.55;;
76193;SDS011;64963;52.212;7.482;2022-11-14T01:12:09;142.30;;;29.83;;
76193;SDS011;64963;52.212;7.482;2022-11-14T01:14:34;154.23;;;30.77;;
76193;SDS011;64963;52.212;7.482;2022-11-14T01:16:59;158.93;;;30.50;;
76193;SDS011;64963;52.212;7.482;2022-11-14T01:19:24;125.68;;;27.75;;
76193;SDS011;64963;52.212;7.482;2022-11-14T01:21:49;146.50;;;29.23;;
76193;SDS011;64963;52.212;7.482;2022-11-14T01:24:15;129.03;;;28.53;;
76193;SDS011;64963;52.212;7.482;2022-11-14T01:26:40;122.07;;;24.43;;
76193;SDS011;64963;52.212;7.482;2022-11-14T01:29:05;130.17;;;28.90;;
76193;SDS011;64963;52.212;7.482;2022-11-14T01:31:30;141.83;;;28.90;;
76193;SDS011;64963;52.212;7.482;2022-11-14T01:33:55;139.13;;;29.77;;
76193;SDS011;64963;52.212;7.482;2022-11-14T01:36:20;154.07;;;31.00;;
76193;SDS011;64963;52.212;7.482;2022-11-14T01:38:46;173.97;;;30.83;;
76193;SDS011;64963;52.212;7.482;2022-11-14T01:41:15;153.68;;;31.60;;
76193;SDS011;64963;52.212;7.482;2022-11-14T01:43:40;175.90;;;30.93;;
76193;SDS011;64963;52.212;7.482;2022-11-14T01:46:12;139.83;;;30.50;;
76193;SDS011;64963;52.212;7.482;2022-11-14T01:49:01;178.57;;;32.70;;
76193;SDS011;64963;52.212;7.482;2022-11-14T01:53:53;152.00;;;31.05;;
76193;SDS011;64963;52.212;7.482;2022-11-14T01:56:21;154.07;;;31.58;;
76193;SDS011;64963;52.212;7.482;2022-11-14T01:58:55;147.53;;;33.07;;
76193;SDS011;64963;52.212;7.482;2022-11-14T02:01:22;139.63;;;29.52;;
76193;SDS011;64963;52.212;7.482;2022-11-14T02:03:47;144.90;;;30.33;;
76193;SDS011;64963;52.212;7.482;2022-11-14T02:06:14;146.57;;;31.65;;
76193;SDS011;64963;52.212;7.482;2022-11-14T02:08:40;137.25;;;28.67;;
76193;SDS011;64963;52.212;7.482;2022-11-14T02:11:09;161.38;;;31.80;;
76193;SDS011;64963;52.212;7.482;2022-11-14T02:13:34;159.70;;;30.67;;
76193;SDS011;64963;52.212;7.482;2022-11-14T02:15:59;166.67;;;33.37;;
76193;SDS011;64963;52.212;7.482;2022-11-14T02:18:24;154.33;;;31.53;;
76193;SDS011;64963;52.212;7.482;2022-11-14T02:20:49;165.33;;;32.87;;
76193;SDS011;64963;52.212;7.482;2022-11-14T02:23:23;161.03;;;33.03;;
76193;SDS011;64963;52.212;7.482;2022-11-14T02:25:48;147.10;;;32.85;;
76193;SDS011;64963;52.212;7.482;2022-11-14T02:28:14;158.93;;;32.30;;
76193;SDS011;64963;52.212;7.482;2022-11-14T02:30:39;147.27;;;31.90;;
76193;SDS011;64963;52.212;7.482;2022-11-14T02:33:04;156.83;;;33.00;;
76193;SDS011;64963;52.212;7.482;2022-11-14T02:35:29;148.50;;;30.17;;
76193;SDS011;64963;52.212;7.482;2022-11-14T02:37:54;134.03;;;28.27;;
76193;SDS011;64963;52.212;7.482;2022-11-14T02:40:20;142.77;;;27.50;;
76193;SDS011;64963;52.212;7.482;2022-11-14T02:42:45;160.17;;;31.63;;
76193;SDS011;64963;52.212;7.482;2022-11-14T02:45:10;142.73;;;28.80;;
76193;SDS011;64963;52.212;7.482;2022-11-14T02:47:36;167.05;;;29.55;;
76193;SDS011;64963;52.212;7.482;2022-11-14T02:50:01;150.53;;;31.60;;
76193;SDS011;64963;52.212;7.482;2022-11-14T02:52:27;159.03;;;30.90;;
76193;SDS011;64963;52.212;7.482;2022-11-14T02:54:52;173.67;;;33.00;;
76193;SDS011;64963;52.212;7.482;2022-11-14T02:57:17;146.73;;;30.73;;
76193;SDS011;64963;52.212;7.482;2022-11-14T02:59:42;129.73;;;28.87;;
76193;SDS011;64963;52.212;7.482;2022-11-14T03:02:07;157.02;;;29.65;;
76193;SDS011;64963;52.212;7.482;2022-11-14T03:04:32;147.00;;;29.73;;
76193;SDS011;64963;52.212;7.482;2022-11-14T03:06:58;146.23;;;30.50;;
76193;SDS011;64963;52.212;7.482;2022-11-14T03:09:23;169.90;;;30.20;;
76193;SDS011;64963;52.212;7.482;2022-11-14T03:11:48;222.40;;;32.63;;
76193;SDS011;64963;52.212;7.482;2022-11-14T03:14:13;175.73;;;33.00;;
76193;SDS011;64963;52.212;7.482;2022-11-14T03:16:38;199.20;;;36.40;;
76193;SDS011;64963;52.212;7.482;2022-11-14T03:19:03;170.73;;;33.33;;
76193;SDS011;64963;52.212;7.482;2022-11-14T03:21:28;185.53;;;33.93;;
76193;SDS011;64963;52.212;7.482;2022-11-14T03:23:55;168.67;;;29.23;;
76193;SDS011;64963;52.212;7.482;2022-11-14T03:26:20;145.23;;;29.83;;
76193;SDS011;64963;52.212;7.482;2022-11-14T03:28:45;172.17;;;32.87;;
76193;SDS011;64963;52.212;7.482;2022-11-14T03:31:11;245.00;;;40.30;;
76193;SDS011;64963;52.212;7.482;2022-11-14T03:33:37;199.43;;;35.70;;
76193;SDS011;64963;52.212;7.482;2022-11-14T03:36:02;168.13;;;35.30;;
76193;SDS011;64963;52.212;7.482;2022-11-14T03:38:28;185.63;;;34.25;;
76193;SDS011;64963;52.212;7.482;2022-11-14T03:40:53;187.00;;;34.47;;
76193;SDS011;64963;52.212;7.482;2022-11-14T03:43:19;114.50;;;26.60;;
76193;SDS011;64963;52.212;7.482;2022-11-14T03:45:45;111.25;;;28.40;;
76193;SDS011;64963;52.212;7.482;2022-11-14T03:48:10;109.17;;;26.37;;
76193;SDS011;64963;52.212;7.482;2022-11-14T03:50:36;116.65;;;25.17;;
76193;SDS011;64963;52.212;7.482;2022-11-14T03:53:01;132.70;;;26.97;;
76193;SDS011;64963;52.212;7.482;2022-11-14T03:55:26;114.87;;;26.43;;
76193;SDS011;64963;52.212;7.482;2022-11-14T03:57:51;114.50;;;25.73;;
76193;SDS011;64963;52.212;7.482;2022-11-14T04:00:16;116.93;;;24.07;;
76193;SDS011;64963;52.212;7.482;2022-11-14T04:02:41;112.20;;;26.93;;
76193;SDS011;64963;52.212;7.482;2022-11-14T04:05:07;136.73;;;28.40;;
76193;SDS011;64963;52.212;7.482;2022-11-14T04:07:32;119.40;;;25.20;;
76193;SDS011;64963;52.212;7.482;2022-11-14T04:09:57;112.03;;;20.77;;
76193;SDS011;64963;52.212;7.482;2022-11-14T04:12:22;91.00;;;22.33;;
76193;SDS011;64963;52.212;7.482;2022-11-14T04:14:48;131.57;;;25.57;;
76193;SDS011;64963;52.212;7.482;2022-11-14T04:17:13;694.50;;;68.27;;
76193;SDS011;64963;52.212;7.482;2022-11-14T04:19:38;224.63;;;27.73;;
76193;SDS011;64963;52.212;7.482;2022-11-14T04:22:03;113.50;;;26.70;;
76193;SDS011;64963;52.212;7.482;2022-11-14T04:24:28;131.27;;;28.33;;
76193;SDS011;64963;52.212;7.482;2022-11-14T04:26:53;145.33;;;28.23;;
76193;SDS011;64963;52.212;7.482;2022-11-14T04:29:19;168.87;;;32.83;;
76193;SDS011;64963;52.212;7.482;2022-11-14T04:31:44;149.50;;;30.63;;
76193;SDS011;64963;52.212;7.482;2022-11-14T04:34:09;164.30;;;34.57;;
76193;SDS011;64963;52.212;7.482;2022-11-14T04:36:34;161.90;;;35.27;;
76193;SDS011;64963;52.212;7.482;2022-11-14T04:38:59;162.57;;;34.30;;
76193;SDS011;64963;52.212;7.482;2022-11-14T04:41:25;151.47;;;32.67;;
76193;SDS011;64963;52.212;7.482;2022-11-14T04:43:50;131.67;;;30.30;;
76193;SDS011;64963;52.212;7.482;2022-11-14T04:46:15;108.77;;;23.80;;
76193;SDS011;64963;52.212;7.482;2022-11-14T04:48:40;116.27;;;24.60;;
76193;SDS011;64963;52.212;7.482;2022-11-14T04:51:05;98.90;;;23.93;;
76193;SDS011;64963;52.212;7.482;2022-11-14T04:53:31;100.67;;;24.57;;
76193;SDS011;64963;52.212;7.482;2022-11-14T04:55:56;131.05;;;28.20;;
76193;SDS011;64963;52.212;7.482;2022-11-14T04:58:21;136.80;;;27.63;;
76193;SDS011;64963;52.212;7.482;2022-11-14T05:00:46;102.53;;;24.47;;
76193;SDS011;64963;52.212;7.482;2022-11-14T05:03:11;98.27;;;26.87;;
76193;SDS011;64963;52.212;7.482;2022-11-14T05:05:36;162.50;;;30.93;;
76193;SDS011;64963;52.212;7.482;2022-11-14T05:08:02;106.77;;;25.63;;
76193;SDS011;64963;52.212;7.482;2022-11-14T05:10:27;125.47;;;28.80;;
76193;SDS011;64963;52.212;7.482;2022-11-14T05:12:52;118.63;;;26.03;;
76193;SDS011;64963;52.212;7.482;2022-11-14T05:15:18;102.90;;;24.33;;
76193;SDS011;64963;52.212;7.482;2022-11-14T05:17:43;140.53;;;32.33;;
76193;SDS011;64963;52.212;7.482;2022-11-14T05:20:08;105.33;;;25.03;;
76193;SDS011;64963;52.212;7.482;2022-11-14T05:22:33;125.83;;;28.13;;
76193;SDS011;64963;52.212;7.482;2022-11-14T05:24:59;153.27;;;33.67;;
76193;SDS011;64963;52.212;7.482;2022-11-14T05:27:24;148.80;;;32.17;;
76193;SDS011;64963;52.212;7.482;2022-11-14T05:29:49;137.00;;;32.07;;
76193;SDS011;64963;52.212;7.482;2022-11-14T05:32:14;146.67;;;33.00;;
76193;SDS011;64963;52.212;7.482;2022-11-14T05:34:40;106.22;;;26.48;;
76193;SDS011;64963;52.212;7.482;2022-11-14T05:37:05;103.40;;;26.10;;
76193;SDS011;64963;52.212;7.482;2022-11-14T05:39:30;96.80;;;24.17;;
76193;SDS011;64963;52.212;7.482;2022-11-14T05:41:55;93.93;;;23.67;;
76193;SDS011;64963;52.212;7.482;2022-11-14T05:44:20;84.70;;;20.97;;
76193;SDS011;64963;52.212;7.482;2022-11-14T05:46:45;79.00;;;20.33;;
76193;SDS011;64963;52.212;7.482;2022-11-14T05:49:11;86.10;;;21.10;;
76193;SDS011;64963;52.212;7.482;2022-11-14T05:51:36;111.27;;;27.07;;
76193;SDS011;64963;52.212;7.482;2022-11-14T05:54:01;96.63;;;27.13;;
76193;SDS011;64963;52.212;7.482;2022-11-14T05:56:26;87.97;;;23.10;;
76193;SDS011;64963;52.212;7.482;2022-11-14T05:58:51;75.60;;;19.77;;
76193;SDS011;64963;52.212;7.482;2022-11-14T06:01:17;70.63;;;20.90;;
76193;SDS011;64963;52.212;7.482;2022-11-14T06:03:44;79.37;;;22.03;;
76193;SDS011;64963;52.212;7.482;2022-11-14T06:06:11;77.05;;;21.98;;
76193;SDS011;64963;52.212;7.482;2022-11-14T06:08:36;87.82;;;23.48;;
76193;SDS011;64963;52.212;7.482;2022-11-14T06:11:02;78.67;;;22.57;;
76193;SDS011;64963;52.212;7.482;2022-11-14T06:13:27;129.93;;;26.60;;
76193;SDS011;64963;52.212;7.482;2022-11-14T06:15:52;85.23;;;23.57;;
76193;SDS011;64963;52.212;7.482;2022-11-14T06:18:21;102.60;;;24.77;;
76193;SDS011;64963;52.212;7.482;2022-11-14T06:20:46;198.40;;;33.77;;
76193;SDS011;64963;52.212;7.482;2022-11-14T06:23:12;129.50;;;28.63;;
76193;SDS011;64963;52.212;7.482;2022-11-14T06:25:37;262.40;;;39.93;;
76193;SDS011;64963;52.212;7.482;2022-11-14T06:28:02;203.00;;;36.87;;
76193;SDS011;64963;52.212;7.482;2022-11-14T06:30:27;229.13;;;47.03;;
76193;SDS011;64963;52.212;7.482;2022-11-14T06:32:56;189.03;;;41.70;;
76193;SDS011;64963;52.212;7.482;2022-11-14T06:35:21;217.15;;;45.65;;
76193;SDS011;64963;52.212;7.482;2022-11-14T06:37:46;177.43;;;41.23;;
76193;SDS011;64963;52.212;7.482;2022-11-14T06:40:12;190.05;;;39.90;;
76193;SDS011;64963;52.212;7.482;2022-11-14T06:42:37;168.33;;;36.47;;
76193;SDS011;64963;52.212;7.482;2022-11-14T06:45:02;124.40;;;29.60;;
76193;SDS011;64963;52.212;7.482;2022-11-14T06:47:27;106.13;;;25.83;;
76193;SDS011;64963;52.212;7.482;2022-11-14T06:49:52;103.17;;;25.67;;
76193;SDS011;64963;52.212;7.482;2022-11-14T06:52:18;118.97;;;30.93;;
76193;SDS011;64963;52.212;7.482;2022-11-14T06:54:43;86.13;;;25.10;;
76193;SDS011;64963;52.212;7.482;2022-11-14T06:57:08;78.63;;;24.43;;
76193;SDS011;64963;52.212;7.482;2022-11-14T06:59:33;75.57;;;23.37;;
76193;SDS011;64963;52.212;7.482;2022-11-14T07:01:58;117.53;;;30.03;;
76193;SDS011;64963;52.212;7.482;2022-11-14T07:04:23;93.23;;;27.00;;
76193;SDS011;64963;52.212;7.482;2022-11-14T07:06:48;82.03;;;24.57;;
76193;SDS011;64963;52.212;7.482;2022-11-14T07:09:14;90.63;;;25.77;;
76193;SDS011;64963;52.212;7.482;2022-11-14T07:11:39;102.63;;;26.63;;
76193;SDS011;64963;52.212;7.482;2022-11-14T07:14:04;80.67;;;23.73;;
76193;SDS011;64963;52.212;7.482;2022-11-14T07:16:30;96.47;;;24.23;;
76193;SDS011;64963;52.212;7.482;2022-11-14T07:18:57;69.43;;;23.23;;
76193;SDS011;64963;52.212;7.482;2022-11-14T07:21:22;67.87;;;22.37;;
76193;SDS011;64963;52.212;7.482;2022-11-14T07:23:47;78.20;;;23.20;;
76193;SDS011;64963;52.212;7.482;2022-11-14T07:26:13;57.20;;;20.40;;
76193;SDS011;64963;52.212;7.482;2022-11-14T07:28:39;61.50;;;19.67;;
76193;SDS011;64963;52.212;7.482;2022-11-14T07:31:14;46.93;;;18.50;;
76193;SDS011;64963;52.212;7.482;2022-11-14T07:33:40;54.67;;;18.95;;
76193;SDS011;64963;52.212;7.482;2022-11-14T07:36:06;52.25;;;17.67;;
76193;SDS011;64963;52.212;7.482;2022-11-14T07:38:31;41.20;;;15.30;;
76193;SDS011;64963;52.212;7.482;2022-11-14T07:40:57;48.85;;;14.18;;
76193;SDS011;64963;52.212;7.482;2022-11-14T07:43:23;184.65;;;20.45;;
76193;SDS011;64963;52.212;7.482;2022-11-14T07:45:49;362.07;;;27.83;;
76193;SDS011;64963;52.212;7.482;2022-11-14T07:48:14;539.67;;;36.33;;
76193;SDS011;64963;52.212;7.482;2022-11-14T07:50:39;259.05;;;23.23;;
76193;SDS011;64963;52.212;7.482;2022-11-14T07:53:04;168.80;;;22.50;;
76193;SDS011;64963;52.212;7.482;2022-11-14T07:55:30;395.37;;;33.30;;
76193;SDS011;64963;52.212;7.482;2022-11-14T07:57:57;628.27;;;39.27;;
76193;SDS011;64963;52.212;7.482;2022-11-14T08:00:22;119.40;;;22.60;;
76193;SDS011;64963;52.212;7.482;2022-11-14T08:02:48;221.03;;;27.40;;
76193;SDS011;64963;52.212;7.482;2022-11-14T08:05:13;1031.10;;;59.77;;
76193;SDS011;64963;52.212;7.482;2022-11-14T08:07:38;134.93;;;20.27;;
76193;SDS011;64963;52.212;7.482;2022-11-14T08:10:03;34.10;;;16.20;;
76193;SDS011;64963;52.212;7.482;2022-11-14T08:12:29;83.63;;;19.33;;
76193;SDS011;64963;52.212;7.482;2022-11-14T08:14:54;105.50;;;21.13;;
76193;SDS011;64963;52.212;7.482;2022-11-14T08:17:19;37.90;;;19.83;;
76193;SDS011;64963;52.212;7.482;2022-11-14T08:19:45;35.03;;;18.30;;
76193;SDS011;64963;52.212;7.482;2022-11-14T08:22:10;43.77;;;18.47;;
76193;SDS011;64963;52.212;7.482;2022-11-14T08:24:35;39.30;;;18.30;;
76193;SDS011;64963;52.212;7.482;2022-11-14T08:27:00;34.63;;;18.80;;
76193;SDS011;64963;52.212;7.482;2022-11-14T08:29:25;28.67;;;16.90;;
76193;SDS011;64963;52.212;7.482;2022-11-14T08:31:50;26.40;;;16.35;;
76193;SDS011;64963;52.212;7.482;2022-11-14T08:34:16;26.50;;;16.25;;
76193;SDS011;64963;52.212;7.482;2022-11-14T08:36:41;27.53;;;17.07;;
76193;SDS011;64963;52.212;7.482;2022-11-14T08:39:06;25.10;;;15.85;;
76193;SDS011;64963;52.212;7.482;2022-11-14T08:41:31;25.63;;;15.80;;
76193;SDS011;64963;52.212;7.482;2022-11-14T08:43:56;25.07;;;15.57;;
76193;SDS011;64963;52.212;7.482;2022-11-14T08:46:21;24.20;;;16.33;;
76193;SDS011;64963;52.212;7.482;2022-11-14T08:48:47;24.97;;;15.93;;
76193;SDS011;64963;52.212;7.482;2022-11-14T08:51:12;22.40;;;14.00;;
76193;SDS011;64963;52.212;7.482;2022-11-14T08:53:37;23.65;;;15.40;;
76193;SDS011;64963;52.212;7.482;2022-11-14T08:56:02;26.07;;;15.80;;
76193;SDS011;64963;52.212;7.482;2022-11-14T08:58:28;22.00;;;15.30;;
76193;SDS011;64963;52.212;7.482;2022-11-14T09:00:53;23.77;;;15.17;;
76193;SDS011;64963;52.212;7.482;2022-11-14T09:03:18;22.37;;;15.40;;
76193;SDS011;64963;52.212;7.482;2022-11-14T09:05:49;20.50;;;13.80;;
76193;SDS011;64963;52.212;7.482;2022-11-14T09:08:14;21.95;;;13.75;;
76193;SDS011;64963;52.212;7.482;2022-11-14T09:10:39;22.80;;;14.57;;
76193;SDS011;64963;52.212;7.482;2022-11-14T09:13:04;20.67;;;13.53;;
76193;SDS011;64963;52.212;7.482;2022-11-14T09:15:29;22.33;;;14.40;;
76193;SDS011;64963;52.212;7.482;2022-11-14T09:17:55;20.10;;;13.57;;
76193;SDS011;64963;52.212;7.482;2022-11-14T09:20:21;24.48;;;14.65;;
76193;SDS011;64963;52.212;7.482;2022-11-14T09:22:47;20.27;;;13.27;;
76193;SDS011;64963;52.212;7.482;2022-11-14T09:25:12;20.13;;;13.40;;
76193;SDS011;64963;52.212;7.482;2022-11-14T09:27:37;19.37;;;12.70;;
76193;SDS011;64963;52.212;7.482;2022-11-14T09:30:02;18.87;;;13.00;;
76193;SDS011;64963;52.212;7.482;2022-11-14T09:32:28;21.67;;;13.00;;
76193;SDS011;64963;52.212;7.482;2022-11-14T09:34:53;19.50;;;13.60;;
76193;SDS011;64963;52.212;7.482;2022-11-14T09:37:18;20.40;;;13.73;;
76193;SDS011;64963;52.212;7.482;2022-11-14T09:39:43;20.83;;;13.03;;
76193;SDS011;64963;52.212;7.482;2022-11-14T09:47:11;21.48;;;13.77;;
76193;SDS011;64963;52.212;7.482;2022-11-14T09:49:37;20.50;;;12.82;;
76193;SDS011;64963;52.212;7.482;2022-11-14T09:52:24;19.53;;;12.57;;
76193;SDS011;64963;52.212;7.482;2022-11-14T09:54:51;19.10;;;12.25;;
76193;SDS011;64963;52.212;7.482;2022-11-14T09:57:18;21.77;;;12.57;;
76193;SDS011;64963;52.212;7.482;2022-11-14T09:59:44;18.50;;;12.55;;
76193;SDS011;64963;52.212;7.482;2022-11-14T10:02:13;18.43;;;12.13;;
76193;SDS011;64963;52.212;7.482;2022-11-14T10:04:43;19.50;;;12.55;;
76193;SDS011;64963;52.212;7.482;2022-11-14T10:07:21;21.33;;;11.93;;
76193;SDS011;64963;52.212;7.482;2022-11-14T10:20:06;19.60;;;11.95;;
76193;SDS011;64963;52.212;7.482;2022-11-14T10:22:57;17.65;;;12.05;;
76193;SDS011;64963;52.212;7.482;2022-11-14T10:28:03;20.05;;;12.50;;
76193;SDS011;64963;52.212;7.482;2022-11-14T10:30:39;17.83;;;12.00;;
76193;SDS011;64963;52.212;7.482;2022-11-14T10:35:54;17.67;;;11.98;;
76193;SDS011;64963;52.212;7.482;2022-11-14T10:38:41;16.97;;;11.30;;
76193;SDS011;64963;52.212;7.482;2022-11-14T10:41:09;16.45;;;10.93;;
76193;SDS011;64963;52.212;7.482;2022-11-14T10:48:43;20.55;;;11.43;;
76193;SDS011;64963;52.212;7.482;2022-11-14T10:51:19;17.95;;;12.13;;
76193;SDS011;64963;52.212;7.482;2022-11-14T10:56:30;19.10;;;11.10;;
76193;SDS011;64963;52.212;7.482;2022-11-14T10:58:55;17.03;;;11.30;;
76193;SDS011;64963;52.212;7.482;2022-11-14T11:01:36;16.83;;;11.53;;
76193;SDS011;64963;52.212;7.482;2022-11-14T11:06:42;16.92;;;11.25;;
76193;SDS011;64963;52.212;7.482;2022-11-14T11:09:29;19.07;;;12.30;;
76193;SDS011;64963;52.212;7.482;2022-11-14T11:11:55;18.33;;;11.43;;
76193;SDS011;64963;52.212;7.482;2022-11-14T11:14:20;14.82;;;10.52;;
76193;SDS011;64963;52.212;7.482;2022-11-14T11:16:45;16.50;;;10.83;;
76193;SDS011;64963;52.212;7.482;2022-11-14T11:19:17;16.67;;;11.70;;
76193;SDS011;64963;52.212;7.482;2022-11-14T11:21:47;18.05;;;10.70;;
76193;SDS011;64963;52.212;7.482;2022-11-14T11:24:21;19.10;;;11.80;;
76193;SDS011;64963;52.212;7.482;2022-11-14T11:29:37;20.25;;;13.45;;
76193;SDS011;64963;52.212;7.482;2022-11-14T11:32:03;15.83;;;10.93;;
76193;SDS011;64963;52.212;7.482;2022-11-14T11:34:30;18.30;;;11.80;;
76193;SDS011;64963;52.212;7.482;2022-11-14T11:37:03;17.85;;;11.10;;
76193;SDS011;64963;52.212;7.482;2022-11-14T11:39:31;18.80;;;10.70;;
76193;SDS011;64963;52.212;7.482;2022-11-14T11:41:58;16.03;;;10.13;;
76193;SDS011;64963;52.212;7.482;2022-11-14T11:44:26;15.35;;;10.60;;
76193;SDS011;64963;52.212;7.482;2022-11-14T11:46:58;17.88;;;11.55;;
76193;SDS011;64963;52.212;7.482;2022-11-14T11:49:42;16.27;;;11.00;;
76193;SDS011;64963;52.212;7.482;2022-11-14T11:52:12;16.27;;;11.05;;
76193;SDS011;64963;52.212;7.482;2022-11-14T11:54:54;16.27;;;11.07;;
76193;SDS011;64963;52.212;7.482;2022-11-14T11:57:23;16.25;;;10.73;;
76193;SDS011;64963;52.212;7.482;2022-11-14T11:59:51;18.80;;;11.27;;
76193;SDS011;64963;52.212;7.482;2022-11-14T12:02:21;15.32;;;10.80;;
76193;SDS011;64963;52.212;7.482;2022-11-14T12:04:48;20.77;;;12.40;;
76193;SDS011;64963;52.212;7.482;2022-11-14T12:07:15;16.63;;;11.20;;
76193;SDS011;64963;52.212;7.482;2022-11-14T12:09:42;17.42;;;11.25;;
76193;SDS011;64963;52.212;7.482;2022-11-14T12:12:12;17.67;;;11.93;;
76193;SDS011;64963;52.212;7.482;2022-11-14T12:14:57;18.00;;;11.85;;
76193;SDS011;64963;52.212;7.482;2022-11-14T12:17:36;19.92;;;12.68;;
76193;SDS011;64963;52.212;7.482;2022-11-14T12:25:43;16.67;;;11.10;;
76193;SDS011;64963;52.212;7.482;2022-11-14T12:28:15;15.57;;;10.88;;
76193;SDS011;64963;52.212;7.482;2022-11-14T12:30:47;18.27;;;10.70;;
76193;SDS011;64963;52.212;7.482;2022-11-14T12:33:19;17.67;;;10.80;;
76193;SDS011;64963;52.212;7.482;2022-11-14T12:35:48;14.60;;;9.93;;
76193;SDS011;64963;52.212;7.482;2022-11-14T12:38:14;21.25;;;10.50;;
76193;SDS011;64963;52.212;7.482;2022-11-14T12:40:41;16.77;;;10.40;;
76193;SDS011;64963;52.212;7.482;2022-11-14T12:43:46;16.05;;;10.15;;
76193;SDS011;64963;52.212;7.482;2022-11-14T12:46:04;16.73;;;10.00;;
76193;SDS011;64963;52.212;7.482;2022-11-14T12:48:31;15.97;;;10.20;;
76193;SDS011;64963;52.212;7.482;2022-11-14T12:50:57;15.77;;;9.98;;
76193;SDS011;64963;52.212;7.482;2022-11-14T12:55:55;15.80;;;10.30;;
76193;SDS011;64963;52.212;7.482;2022-11-14T12:58:41;14.27;;;9.75;;
76193;SDS011;64963;52.212;7.482;2022-11-14T13:13:58;15.00;;;9.88;;
76193;SDS011;64963;52.212;7.482;2022-11-14T13:16:25;14.27;;;9.80;;
76193;SDS011;64963;52.212;7.482;2022-11-14T13:18:55;16.00;;;10.30;;
76193;SDS011;64963;52.212;7.482;2022-11-14T13:31:04;16.48;;;9.88;;
76193;SDS011;64963;52.212;7.482;2022-11-14T13:33:46;14.70;;;8.90;;
76193;SDS011;64963;52.212;7.482;2022-11-14T13:41:10;16.97;;;9.20;;
76193;SDS011;64963;52.212;7.482;2022-11-14T13:49:06;15.70;;;10.27;;
76193;SDS011;64963;52.212;7.482;2022-11-14T13:51:34;17.40;;;9.73;;
76193;SDS011;64963;52.212;7.482;2022-11-14T13:54:00;15.70;;;9.60;;
76193;SDS011;64963;52.212;7.482;2022-11-14T14:04:00;15.95;;;9.55;;
76193;SDS011;64963;52.212;7.482;2022-11-14T14:11:56;16.23;;;9.07;;
76193;SDS011;64963;52.212;7.482;2022-11-14T14:17:13;16.27;;;9.15;;
76193;SDS011;64963;52.212;7.482;2022-11-14T14:19:59;16.67;;;8.80;;
76193;SDS011;64963;52.212;7.482;2022-11-14T14:28:02;18.92;;;10.68;;
76193;SDS011;64963;52.212;7.482;2022-11-14T14:30:29;19.95;;;11.30;;
76193;SDS011;64963;52.212;7.482;2022-11-14T14:33:01;17.67;;;9.85;;
76193;SDS011;64963;52.212;7.482;2022-11-14T14:35:28;17.07;;;10.40;;
76193;SDS011;64963;52.212;7.482;2022-11-14T14:37:54;17.25;;;9.75;;
76193;SDS011;64963;52.212;7.482;2022-11-14T14:42:50;18.75;;;9.35;;
76193;SDS011;64963;52.212;7.482;2022-11-14T14:45:16;15.32;;;9.52;;
76193;SDS011;64963;52.212;7.482;2022-11-14T14:47:43;16.97;;;9.30;;
76193;SDS011;64963;52.212;7.482;2022-11-14T14:50:13;14.57;;;9.15;;
76193;SDS011;64963;52.212;7.482;2022-11-14T14:52:39;15.98;;;9.68;;
76193;SDS011;64963;52.212;7.482;2022-11-14T14:55:05;15.03;;;8.23;;
76193;SDS011;64963;52.212;7.482;2022-11-14T14:57:31;16.00;;;8.85;;
76193;SDS011;64963;52.212;7.482;2022-11-14T15:00:00;14.30;;;9.13;;
76193;SDS011;64963;52.212;7.482;2022-11-14T15:02:25;14.65;;;7.85;;
76193;SDS011;64963;52.212;7.482;2022-11-14T15:04:51;17.47;;;9.50;;
76193;SDS011;64963;52.212;7.482;2022-11-14T15:07:21;14.70;;;8.43;;
76193;SDS011;64963;52.212;7.482;2022-11-14T15:10:05;20.50;;;12.43;;
76193;SDS011;64963;52.212;7.482;2022-11-14T15:12:30;19.48;;;11.93;;
76193;SDS011;64963;52.212;7.482;2022-11-14T15:14:58;21.67;;;10.88;;
76193;SDS011;64963;52.212;7.482;2022-11-14T15:17:24;19.23;;;10.60;;
76193;SDS011;64963;52.212;7.482;2022-11-14T15:19:50;16.27;;;9.02;;
76193;SDS011;64963;52.212;7.482;2022-11-14T15:24:41;20.27;;;11.37;;
76193;SDS011;64963;52.212;7.482;2022-11-14T15:27:16;20.07;;;10.20;;
76193;SDS011;64963;52.212;7.482;2022-11-14T15:29:45;16.42;;;9.52;;
76193;SDS011;64963;52.212;7.482;2022-11-14T15:32:15;19.38;;;9.20;;
76193;SDS011;64963;52.212;7.482;2022-11-14T15:34:41;18.95;;;10.73;;
76193;SDS011;64963;52.212;7.482;2022-11-14T15:37:27;20.13;;;11.20;;
76193;SDS011;64963;52.212;7.482;2022-11-14T15:39:52;16.63;;;9.93;;
76193;SDS011;64963;52.212;7.482;2022-11-14T15:44:48;17.67;;;9.77;;
76193;SDS011;64963;52.212;7.482;2022-11-14T15:47:29;17.83;;;10.77;;
76193;SDS011;64963;52.212;7.482;2022-11-14T15:50:18;19.50;;;11.03;;
76193;SDS011;64963;52.212;7.482;2022-11-14T15:52:46;17.95;;;10.25;;
76193;SDS011;64963;52.212;7.482;2022-11-14T15:55:17;18.98;;;10.57;;
76193;SDS011;64963;52.212;7.482;2022-11-14T15:57:42;19.27;;;10.55;;
76193;SDS011;64963;52.212;7.482;2022-11-14T16:00:11;21.13;;;10.47;;
76193;SDS011;64963;52.212;7.482;2022-11-14T16:02:39;18.88;;;9.93;;